sensor_id;sensor_type;location;lat;lon;timestamp;P1;durP1;ratioP1;P2;durP2;ratioP2
45476;SDS011;31958;51.756;-2.556;2023-06-10T00:00:48;13.45;;;5.78;;
45476;SDS011;31958;51.756;-2.556;2023-06-10T00:03:13;15.60;;;6.05;;
45476;SDS011;31958;51.756;-2.556;2023-06-10T00:05:39;17.13;;;5.80;;
45476;SDS011;31958;51.756;-2.556;2023-06-10T00:08:05;19.65;;;6.57;;
45476;SDS011;31958;51.756;-2.556;2023-06-10T00:10:34;18.52;;;6.18;;
45476;SDS011;31958;51.756;-2.556;2023-06-10T00:13:03;18.95;;;6.78;;
45476;SDS011;31958;51.756;-2.556;2023-06-10T00:15:29;12.18;;;5.90;;
45476;SDS011;31958;51.756;-2.556;2023-06-10T00:17:55;15.15;;;6.32;;
45476;SDS011;31958;51.756;-2.556;2023-06-10T00:20:20;18.02;;;7.13;;
45476;SDS011;31958;51.756;-2.556;2023-06-10T00:22:48;24.13;;;7.22;;
45476;SDS011;31958;51.756;-2.556;2023-06-10T00:25:14;16.88;;;6.43;;
45476;SDS011;31958;51.756;-2.556;2023-06-10T00:27:39;13.85;;;6.30;;
45476;SDS011;31958;51.756;-2.556;2023-06-10T00:30:05;19.63;;;6.10;;
45476;SDS011;31958;51.756;-2.556;2023-06-10T00:32:34;16.05;;;6.15;;
45476;SDS011;31958;51.756;-2.556;2023-06-10T00:35:00;16.05;;;6.32;;
45476;SDS011;31958;51.756;-2.556;2023-06-10T00:37:26;16.45;;;6.53;;
45476;SDS011;31958;51.756;-2.556;2023-06-10T00:39:52;29.90;;;6.60;;
45476;SDS011;31958;51.756;-2.556;2023-06-10T00:42:17;21.02;;;6.35;;
45476;SDS011;31958;51.756;-2.556;2023-06-10T00:44:42;18.83;;;6.63;;
45476;SDS011;31958;51.756;-2.556;2023-06-10T00:47:08;18.75;;;6.60;;
45476;SDS011;31958;51.756;-2.556;2023-06-10T00:49:33;18.77;;;7.43;;
45476;SDS011;31958;51.756;-2.556;2023-06-10T00:51:59;16.75;;;6.20;;
45476;SDS011;31958;51.756;-2.556;2023-06-10T00:54:25;17.20;;;6.15;;
45476;SDS011;31958;51.756;-2.556;2023-06-10T00:56:50;18.98;;;6.53;;
45476;SDS011;31958;51.756;-2.556;2023-06-10T00:59:16;14.82;;;6.45;;
45476;SDS011;31958;51.756;-2.556;2023-06-10T01:01:42;10.45;;;5.72;;
45476;SDS011;31958;51.756;-2.556;2023-06-10T01:04:08;25.45;;;6.95;;
45476;SDS011;31958;51.756;-2.556;2023-06-10T01:06:40;17.48;;;6.45;;
45476;SDS011;31958;51.756;-2.556;2023-06-10T01:14:44;14.02;;;5.85;;
45476;SDS011;31958;51.756;-2.556;2023-06-10T01:17:10;19.25;;;6.47;;
45476;SDS011;31958;51.756;-2.556;2023-06-10T01:19:36;18.35;;;6.22;;
45476;SDS011;31958;51.756;-2.556;2023-06-10T01:22:02;19.20;;;6.30;;
45476;SDS011;31958;51.756;-2.556;2023-06-10T01:24:28;28.40;;;6.97;;
45476;SDS011;31958;51.756;-2.556;2023-06-10T01:26:54;13.85;;;6.90;;
45476;SDS011;31958;51.756;-2.556;2023-06-10T01:29:31;26.02;;;7.40;;
45476;SDS011;31958;51.756;-2.556;2023-06-10T01:32:27;25.00;;;7.30;;
45476;SDS011;31958;51.756;-2.556;2023-06-10T01:34:52;18.35;;;6.43;;
45476;SDS011;31958;51.756;-2.556;2023-06-10T01:37:19;14.43;;;6.97;;
45476;SDS011;31958;51.756;-2.556;2023-06-10T01:39:48;14.13;;;6.00;;
45476;SDS011;31958;51.756;-2.556;2023-06-10T01:42:13;14.88;;;6.70;;
45476;SDS011;31958;51.756;-2.556;2023-06-10T01:44:39;18.13;;;7.00;;
45476;SDS011;31958;51.756;-2.556;2023-06-10T01:47:04;21.52;;;7.28;;
45476;SDS011;31958;51.756;-2.556;2023-06-10T01:49:30;22.40;;;7.55;;
45476;SDS011;31958;51.756;-2.556;2023-06-10T01:51:55;22.25;;;7.25;;
45476;SDS011;31958;51.756;-2.556;2023-06-10T01:54:21;24.30;;;7.45;;
45476;SDS011;31958;51.756;-2.556;2023-06-10T01:56:46;15.07;;;6.43;;
45476;SDS011;31958;51.756;-2.556;2023-06-10T01:59:11;25.42;;;6.57;;
45476;SDS011;31958;51.756;-2.556;2023-06-10T02:01:36;17.40;;;7.18;;
45476;SDS011;31958;51.756;-2.556;2023-06-10T02:04:02;17.27;;;6.93;;
45476;SDS011;31958;51.756;-2.556;2023-06-10T02:06:27;19.73;;;7.22;;
45476;SDS011;31958;51.756;-2.556;2023-06-10T02:08:53;19.33;;;7.30;;
45476;SDS011;31958;51.756;-2.556;2023-06-10T02:11:18;20.20;;;7.75;;
45476;SDS011;31958;51.756;-2.556;2023-06-10T02:13:43;18.98;;;7.15;;
45476;SDS011;31958;51.756;-2.556;2023-06-10T02:16:08;18.10;;;7.60;;
45476;SDS011;31958;51.756;-2.556;2023-06-10T02:18:37;25.13;;;7.85;;
45476;SDS011;31958;51.756;-2.556;2023-06-10T02:21:05;23.83;;;7.60;;
45476;SDS011;31958;51.756;-2.556;2023-06-10T02:23:31;22.73;;;8.50;;
45476;SDS011;31958;51.756;-2.556;2023-06-10T02:25:57;13.20;;;7.50;;
45476;SDS011;31958;51.756;-2.556;2023-06-10T02:28:22;20.00;;;8.43;;
45476;SDS011;31958;51.756;-2.556;2023-06-10T02:30:47;17.67;;;9.13;;
45476;SDS011;31958;51.756;-2.556;2023-06-10T02:33:13;33.53;;;10.30;;
45476;SDS011;31958;51.756;-2.556;2023-06-10T02:35:39;33.50;;;9.23;;
45476;SDS011;31958;51.756;-2.556;2023-06-10T02:38:04;21.70;;;9.07;;
45476;SDS011;31958;51.756;-2.556;2023-06-10T02:40:30;27.08;;;8.50;;
45476;SDS011;31958;51.756;-2.556;2023-06-10T02:42:55;21.13;;;10.15;;
45476;SDS011;31958;51.756;-2.556;2023-06-10T02:45:21;26.08;;;10.15;;
45476;SDS011;31958;51.756;-2.556;2023-06-10T02:47:47;20.63;;;9.18;;
45476;SDS011;31958;51.756;-2.556;2023-06-10T02:50:12;16.52;;;7.80;;
45476;SDS011;31958;51.756;-2.556;2023-06-10T02:52:37;21.83;;;8.18;;
45476;SDS011;31958;51.756;-2.556;2023-06-10T02:55:03;14.90;;;7.70;;
45476;SDS011;31958;51.756;-2.556;2023-06-10T02:57:28;18.38;;;8.57;;
45476;SDS011;31958;51.756;-2.556;2023-06-10T02:59:54;20.02;;;7.88;;
45476;SDS011;31958;51.756;-2.556;2023-06-10T03:02:19;25.83;;;8.57;;
45476;SDS011;31958;51.756;-2.556;2023-06-10T03:04:45;17.52;;;8.35;;
45476;SDS011;31958;51.756;-2.556;2023-06-10T03:07:10;14.20;;;8.85;;
45476;SDS011;31958;51.756;-2.556;2023-06-10T03:09:36;16.00;;;8.32;;
45476;SDS011;31958;51.756;-2.556;2023-06-10T03:12:01;21.08;;;7.97;;
45476;SDS011;31958;51.756;-2.556;2023-06-10T03:14:27;20.27;;;8.10;;
45476;SDS011;31958;51.756;-2.556;2023-06-10T03:16:52;24.50;;;8.77;;
45476;SDS011;31958;51.756;-2.556;2023-06-10T03:19:18;17.38;;;8.52;;
45476;SDS011;31958;51.756;-2.556;2023-06-10T03:21:44;25.90;;;8.02;;
45476;SDS011;31958;51.756;-2.556;2023-06-10T03:24:09;22.38;;;9.50;;
45476;SDS011;31958;51.756;-2.556;2023-06-10T03:26:36;21.15;;;9.30;;
45476;SDS011;31958;51.756;-2.556;2023-06-10T03:29:01;20.92;;;9.57;;
45476;SDS011;31958;51.756;-2.556;2023-06-10T03:31:26;17.13;;;8.95;;
45476;SDS011;31958;51.756;-2.556;2023-06-10T03:33:52;26.15;;;10.18;;
45476;SDS011;31958;51.756;-2.556;2023-06-10T03:36:17;17.60;;;8.43;;
45476;SDS011;31958;51.756;-2.556;2023-06-10T03:38:42;16.00;;;9.10;;
45476;SDS011;31958;51.756;-2.556;2023-06-10T03:41:08;17.63;;;8.23;;
45476;SDS011;31958;51.756;-2.556;2023-06-10T03:43:33;17.73;;;9.07;;
45476;SDS011;31958;51.756;-2.556;2023-06-10T03:45:58;17.73;;;7.93;;
45476;SDS011;31958;51.756;-2.556;2023-06-10T03:48:24;22.70;;;9.27;;
45476;SDS011;31958;51.756;-2.556;2023-06-10T03:50:49;21.58;;;9.38;;
45476;SDS011;31958;51.756;-2.556;2023-06-10T03:53:17;22.10;;;8.80;;
45476;SDS011;31958;51.756;-2.556;2023-06-10T03:55:43;22.02;;;9.07;;
45476;SDS011;31958;51.756;-2.556;2023-06-10T03:58:08;22.95;;;6.88;;
45476;SDS011;31958;51.756;-2.556;2023-06-10T04:00:33;26.20;;;10.18;;
45476;SDS011;31958;51.756;-2.556;2023-06-10T04:03:06;18.88;;;9.55;;
45476;SDS011;31958;51.756;-2.556;2023-06-10T04:05:34;20.88;;;9.73;;
45476;SDS011;31958;51.756;-2.556;2023-06-10T04:07:59;18.98;;;8.85;;
45476;SDS011;31958;51.756;-2.556;2023-06-10T04:10:26;27.70;;;9.95;;
45476;SDS011;31958;51.756;-2.556;2023-06-10T04:12:52;17.63;;;8.32;;
45476;SDS011;31958;51.756;-2.556;2023-06-10T04:15:17;21.23;;;9.68;;
45476;SDS011;31958;51.756;-2.556;2023-06-10T04:17:43;21.48;;;9.70;;
45476;SDS011;31958;51.756;-2.556;2023-06-10T04:20:08;21.70;;;8.60;;
45476;SDS011;31958;51.756;-2.556;2023-06-10T04:22:34;19.25;;;7.80;;
45476;SDS011;31958;51.756;-2.556;2023-06-10T04:25:01;14.82;;;7.95;;
45476;SDS011;31958;51.756;-2.556;2023-06-10T04:27:27;21.33;;;8.63;;
45476;SDS011;31958;51.756;-2.556;2023-06-10T04:29:52;16.17;;;8.93;;
45476;SDS011;31958;51.756;-2.556;2023-06-10T04:32:17;25.17;;;8.90;;
45476;SDS011;31958;51.756;-2.556;2023-06-10T04:34:43;17.52;;;8.07;;
45476;SDS011;31958;51.756;-2.556;2023-06-10T04:37:08;22.67;;;9.88;;
45476;SDS011;31958;51.756;-2.556;2023-06-10T04:39:33;24.95;;;8.50;;
45476;SDS011;31958;51.756;-2.556;2023-06-10T04:41:58;25.98;;;9.57;;
45476;SDS011;31958;51.756;-2.556;2023-06-10T04:44:25;18.98;;;8.15;;
45476;SDS011;31958;51.756;-2.556;2023-06-10T04:46:50;24.50;;;9.18;;
45476;SDS011;31958;51.756;-2.556;2023-06-10T04:49:15;18.88;;;8.20;;
45476;SDS011;31958;51.756;-2.556;2023-06-10T04:51:41;17.13;;;8.38;;
45476;SDS011;31958;51.756;-2.556;2023-06-10T04:54:06;15.10;;;7.05;;
45476;SDS011;31958;51.756;-2.556;2023-06-10T04:56:31;21.77;;;8.45;;
45476;SDS011;31958;51.756;-2.556;2023-06-10T04:58:57;20.55;;;8.38;;
45476;SDS011;31958;51.756;-2.556;2023-06-10T05:01:22;19.13;;;8.07;;
45476;SDS011;31958;51.756;-2.556;2023-06-10T05:03:48;19.92;;;8.48;;
45476;SDS011;31958;51.756;-2.556;2023-06-10T05:06:13;18.13;;;7.53;;
45476;SDS011;31958;51.756;-2.556;2023-06-10T05:08:39;22.13;;;8.07;;
45476;SDS011;31958;51.756;-2.556;2023-06-10T05:11:04;18.75;;;8.57;;
45476;SDS011;31958;51.756;-2.556;2023-06-10T05:13:29;15.57;;;7.05;;
45476;SDS011;31958;51.756;-2.556;2023-06-10T05:15:55;15.30;;;7.57;;
45476;SDS011;31958;51.756;-2.556;2023-06-10T05:18:20;15.65;;;6.95;;
45476;SDS011;31958;51.756;-2.556;2023-06-10T05:20:46;13.23;;;7.05;;
45476;SDS011;31958;51.756;-2.556;2023-06-10T05:23:11;18.88;;;7.35;;
45476;SDS011;31958;51.756;-2.556;2023-06-10T05:25:37;18.27;;;7.10;;
45476;SDS011;31958;51.756;-2.556;2023-06-10T05:28:02;17.52;;;6.80;;
45476;SDS011;31958;51.756;-2.556;2023-06-10T05:30:28;21.13;;;7.50;;
45476;SDS011;31958;51.756;-2.556;2023-06-10T05:32:53;20.63;;;7.40;;
45476;SDS011;31958;51.756;-2.556;2023-06-10T05:35:18;18.75;;;6.80;;
45476;SDS011;31958;51.756;-2.556;2023-06-10T05:37:44;18.45;;;5.95;;
45476;SDS011;31958;51.756;-2.556;2023-06-10T05:40:10;17.45;;;8.25;;
45476;SDS011;31958;51.756;-2.556;2023-06-10T05:42:36;13.73;;;6.80;;
45476;SDS011;31958;51.756;-2.556;2023-06-10T05:45:01;18.58;;;6.55;;
45476;SDS011;31958;51.756;-2.556;2023-06-10T05:47:27;14.57;;;6.43;;
45476;SDS011;31958;51.756;-2.556;2023-06-10T05:49:53;18.17;;;7.20;;
45476;SDS011;31958;51.756;-2.556;2023-06-10T05:52:18;15.52;;;6.72;;
45476;SDS011;31958;51.756;-2.556;2023-06-10T05:54:43;25.77;;;7.60;;
45476;SDS011;31958;51.756;-2.556;2023-06-10T05:57:09;15.05;;;6.57;;
45476;SDS011;31958;51.756;-2.556;2023-06-10T05:59:35;16.33;;;6.95;;
45476;SDS011;31958;51.756;-2.556;2023-06-10T06:02:01;17.65;;;6.57;;
45476;SDS011;31958;51.756;-2.556;2023-06-10T06:04:26;17.73;;;6.43;;
45476;SDS011;31958;51.756;-2.556;2023-06-10T06:06:51;14.80;;;6.65;;
45476;SDS011;31958;51.756;-2.556;2023-06-10T06:09:17;16.40;;;5.88;;
45476;SDS011;31958;51.756;-2.556;2023-06-10T06:11:42;19.00;;;6.72;;
45476;SDS011;31958;51.756;-2.556;2023-06-10T06:14:07;17.38;;;5.72;;
45476;SDS011;31958;51.756;-2.556;2023-06-10T06:16:33;17.10;;;6.25;;
45476;SDS011;31958;51.756;-2.556;2023-06-10T06:18:58;15.43;;;5.90;;
45476;SDS011;31958;51.756;-2.556;2023-06-10T06:21:23;13.23;;;5.55;;
45476;SDS011;31958;51.756;-2.556;2023-06-10T06:23:49;18.70;;;6.07;;
45476;SDS011;31958;51.756;-2.556;2023-06-10T06:26:14;19.50;;;5.47;;
45476;SDS011;31958;51.756;-2.556;2023-06-10T06:28:40;15.18;;;5.15;;
45476;SDS011;31958;51.756;-2.556;2023-06-10T06:31:06;16.55;;;5.75;;
45476;SDS011;31958;51.756;-2.556;2023-06-10T06:33:32;13.55;;;5.90;;
45476;SDS011;31958;51.756;-2.556;2023-06-10T06:35:57;16.67;;;5.35;;
45476;SDS011;31958;51.756;-2.556;2023-06-10T06:38:22;13.30;;;5.30;;
45476;SDS011;31958;51.756;-2.556;2023-06-10T06:40:48;15.25;;;5.72;;
45476;SDS011;31958;51.756;-2.556;2023-06-10T06:43:13;16.25;;;5.72;;
45476;SDS011;31958;51.756;-2.556;2023-06-10T06:45:38;11.45;;;5.00;;
45476;SDS011;31958;51.756;-2.556;2023-06-10T06:48:04;15.75;;;5.30;;
45476;SDS011;31958;51.756;-2.556;2023-06-10T06:50:30;11.90;;;4.68;;
45476;SDS011;31958;51.756;-2.556;2023-06-10T06:52:55;13.02;;;5.07;;
45476;SDS011;31958;51.756;-2.556;2023-06-10T06:55:21;15.02;;;5.57;;
45476;SDS011;31958;51.756;-2.556;2023-06-10T06:57:46;11.10;;;5.10;;
45476;SDS011;31958;51.756;-2.556;2023-06-10T07:00:11;12.10;;;4.50;;
45476;SDS011;31958;51.756;-2.556;2023-06-10T07:02:37;13.98;;;4.93;;
45476;SDS011;31958;51.756;-2.556;2023-06-10T07:05:02;16.95;;;5.38;;
45476;SDS011;31958;51.756;-2.556;2023-06-10T07:07:28;9.05;;;4.03;;
45476;SDS011;31958;51.756;-2.556;2023-06-10T07:09:53;15.18;;;5.47;;
45476;SDS011;31958;51.756;-2.556;2023-06-10T07:12:19;10.98;;;4.47;;
45476;SDS011;31958;51.756;-2.556;2023-06-10T07:14:47;12.35;;;4.57;;
45476;SDS011;31958;51.756;-2.556;2023-06-10T07:17:12;17.30;;;4.85;;
45476;SDS011;31958;51.756;-2.556;2023-06-10T07:19:37;16.10;;;4.78;;
45476;SDS011;31958;51.756;-2.556;2023-06-10T07:22:03;13.32;;;4.28;;
45476;SDS011;31958;51.756;-2.556;2023-06-10T07:24:28;16.45;;;4.57;;
45476;SDS011;31958;51.756;-2.556;2023-06-10T07:26:54;12.38;;;4.60;;
45476;SDS011;31958;51.756;-2.556;2023-06-10T07:29:19;16.95;;;4.65;;
45476;SDS011;31958;51.756;-2.556;2023-06-10T07:31:44;10.43;;;4.50;;
45476;SDS011;31958;51.756;-2.556;2023-06-10T07:34:10;10.38;;;4.07;;
45476;SDS011;31958;51.756;-2.556;2023-06-10T07:36:35;13.07;;;4.78;;
45476;SDS011;31958;51.756;-2.556;2023-06-10T07:39:01;12.05;;;4.40;;
45476;SDS011;31958;51.756;-2.556;2023-06-10T07:41:27;15.88;;;5.03;;
45476;SDS011;31958;51.756;-2.556;2023-06-10T07:43:53;14.52;;;4.32;;
45476;SDS011;31958;51.756;-2.556;2023-06-10T07:46:22;14.32;;;4.47;;
45476;SDS011;31958;51.756;-2.556;2023-06-10T07:48:48;11.65;;;4.35;;
45476;SDS011;31958;51.756;-2.556;2023-06-10T07:51:14;12.60;;;4.25;;
45476;SDS011;31958;51.756;-2.556;2023-06-10T07:53:40;14.35;;;4.72;;
45476;SDS011;31958;51.756;-2.556;2023-06-10T07:56:05;11.85;;;4.85;;
45476;SDS011;31958;51.756;-2.556;2023-06-10T07:58:31;12.45;;;3.95;;
45476;SDS011;31958;51.756;-2.556;2023-06-10T08:00:56;12.20;;;4.22;;
45476;SDS011;31958;51.756;-2.556;2023-06-10T08:03:21;10.52;;;4.78;;
45476;SDS011;31958;51.756;-2.556;2023-06-10T08:05:47;12.13;;;4.55;;
45476;SDS011;31958;51.756;-2.556;2023-06-10T08:08:12;14.63;;;5.15;;
45476;SDS011;31958;51.756;-2.556;2023-06-10T08:10:38;13.65;;;4.70;;
45476;SDS011;31958;51.756;-2.556;2023-06-10T08:13:03;13.55;;;4.82;;
45476;SDS011;31958;51.756;-2.556;2023-06-10T08:15:29;14.40;;;5.35;;
45476;SDS011;31958;51.756;-2.556;2023-06-10T08:17:54;14.77;;;4.43;;
45476;SDS011;31958;51.756;-2.556;2023-06-10T08:20:21;10.60;;;4.43;;
45476;SDS011;31958;51.756;-2.556;2023-06-10T08:22:47;10.77;;;4.40;;
45476;SDS011;31958;51.756;-2.556;2023-06-10T08:25:12;14.23;;;4.97;;
45476;SDS011;31958;51.756;-2.556;2023-06-10T08:27:37;13.55;;;4.63;;
45476;SDS011;31958;51.756;-2.556;2023-06-10T08:30:03;15.70;;;4.68;;
45476;SDS011;31958;51.756;-2.556;2023-06-10T08:32:29;13.90;;;4.47;;
45476;SDS011;31958;51.756;-2.556;2023-06-10T08:34:55;13.52;;;4.70;;
45476;SDS011;31958;51.756;-2.556;2023-06-10T08:37:20;13.75;;;4.68;;
45476;SDS011;31958;51.756;-2.556;2023-06-10T08:39:45;14.25;;;5.00;;
45476;SDS011;31958;51.756;-2.556;2023-06-10T08:42:15;11.38;;;5.15;;
45476;SDS011;31958;51.756;-2.556;2023-06-10T08:44:44;16.15;;;4.72;;
45476;SDS011;31958;51.756;-2.556;2023-06-10T08:47:14;12.75;;;5.15;;
45476;SDS011;31958;51.756;-2.556;2023-06-10T08:49:44;9.50;;;4.05;;
45476;SDS011;31958;51.756;-2.556;2023-06-10T08:52:14;14.38;;;4.68;;
45476;SDS011;31958;51.756;-2.556;2023-06-10T08:54:42;13.60;;;5.10;;
45476;SDS011;31958;51.756;-2.556;2023-06-10T08:57:14;13.38;;;5.38;;
45476;SDS011;31958;51.756;-2.556;2023-06-10T08:59:40;11.10;;;5.05;;
45476;SDS011;31958;51.756;-2.556;2023-06-10T09:02:06;12.73;;;5.07;;
45476;SDS011;31958;51.756;-2.556;2023-06-10T09:04:32;11.38;;;5.05;;
45476;SDS011;31958;51.756;-2.556;2023-06-10T09:06:58;11.80;;;4.93;;
45476;SDS011;31958;51.756;-2.556;2023-06-10T09:09:24;13.30;;;5.07;;
45476;SDS011;31958;51.756;-2.556;2023-06-10T09:11:51;12.23;;;4.60;;
45476;SDS011;31958;51.756;-2.556;2023-06-10T09:14:16;10.93;;;4.82;;
45476;SDS011;31958;51.756;-2.556;2023-06-10T09:16:41;11.15;;;4.95;;
45476;SDS011;31958;51.756;-2.556;2023-06-10T09:19:07;14.50;;;5.55;;
45476;SDS011;31958;51.756;-2.556;2023-06-10T09:21:33;16.30;;;5.63;;
45476;SDS011;31958;51.756;-2.556;2023-06-10T09:23:59;12.65;;;5.15;;
45476;SDS011;31958;51.756;-2.556;2023-06-10T09:26:27;9.95;;;4.85;;
45476;SDS011;31958;51.756;-2.556;2023-06-10T09:28:57;14.18;;;5.78;;
45476;SDS011;31958;51.756;-2.556;2023-06-10T09:31:27;15.63;;;5.70;;
45476;SDS011;31958;51.756;-2.556;2023-06-10T09:33:53;12.60;;;5.38;;
45476;SDS011;31958;51.756;-2.556;2023-06-10T09:36:24;12.77;;;5.10;;
45476;SDS011;31958;51.756;-2.556;2023-06-10T09:38:50;12.00;;;5.40;;
45476;SDS011;31958;51.756;-2.556;2023-06-10T09:41:16;10.57;;;5.43;;
45476;SDS011;31958;51.756;-2.556;2023-06-10T09:43:42;13.80;;;5.50;;
45476;SDS011;31958;51.756;-2.556;2023-06-10T09:46:15;11.70;;;5.35;;
45476;SDS011;31958;51.756;-2.556;2023-06-10T09:48:44;19.13;;;5.75;;
45476;SDS011;31958;51.756;-2.556;2023-06-10T09:51:12;12.45;;;5.43;;
45476;SDS011;31958;51.756;-2.556;2023-06-10T09:53:38;11.13;;;5.15;;
45476;SDS011;31958;51.756;-2.556;2023-06-10T09:56:04;13.00;;;6.28;;
45476;SDS011;31958;51.756;-2.556;2023-06-10T09:58:34;9.90;;;5.60;;
45476;SDS011;31958;51.756;-2.556;2023-06-10T10:01:09;11.55;;;5.65;;
45476;SDS011;31958;51.756;-2.556;2023-06-10T10:03:45;15.40;;;5.65;;
45476;SDS011;31958;51.756;-2.556;2023-06-10T10:06:12;14.57;;;5.93;;
45476;SDS011;31958;51.756;-2.556;2023-06-10T10:08:38;13.25;;;5.82;;
45476;SDS011;31958;51.756;-2.556;2023-06-10T10:11:03;16.55;;;5.95;;
45476;SDS011;31958;51.756;-2.556;2023-06-10T10:13:28;13.00;;;5.43;;
45476;SDS011;31958;51.756;-2.556;2023-06-10T10:15:55;12.20;;;5.95;;
45476;SDS011;31958;51.756;-2.556;2023-06-10T10:18:22;13.65;;;6.32;;
45476;SDS011;31958;51.756;-2.556;2023-06-10T10:20:53;14.32;;;6.30;;
45476;SDS011;31958;51.756;-2.556;2023-06-10T10:23:35;10.48;;;5.78;;
45476;SDS011;31958;51.756;-2.556;2023-06-10T10:26:07;11.45;;;5.47;;
45476;SDS011;31958;51.756;-2.556;2023-06-10T10:28:41;13.32;;;5.18;;
45476;SDS011;31958;51.756;-2.556;2023-06-10T10:31:10;11.82;;;5.10;;
45476;SDS011;31958;51.756;-2.556;2023-06-10T10:33:54;11.20;;;5.35;;
45476;SDS011;31958;51.756;-2.556;2023-06-10T10:36:21;13.68;;;6.18;;
45476;SDS011;31958;51.756;-2.556;2023-06-10T10:38:47;14.23;;;6.00;;
45476;SDS011;31958;51.756;-2.556;2023-06-10T10:41:13;11.90;;;5.60;;
45476;SDS011;31958;51.756;-2.556;2023-06-10T10:43:40;9.30;;;5.45;;
45476;SDS011;31958;51.756;-2.556;2023-06-10T10:46:11;13.18;;;5.15;;
45476;SDS011;31958;51.756;-2.556;2023-06-10T10:48:38;12.32;;;5.93;;
45476;SDS011;31958;51.756;-2.556;2023-06-10T10:51:06;13.88;;;5.72;;
45476;SDS011;31958;51.756;-2.556;2023-06-10T10:53:31;13.18;;;5.70;;
45476;SDS011;31958;51.756;-2.556;2023-06-10T10:56:01;15.02;;;6.25;;
45476;SDS011;31958;51.756;-2.556;2023-06-10T10:58:30;15.57;;;5.97;;
45476;SDS011;31958;51.756;-2.556;2023-06-10T11:00:57;12.88;;;6.10;;
45476;SDS011;31958;51.756;-2.556;2023-06-10T11:03:22;9.88;;;5.93;;
45476;SDS011;31958;51.756;-2.556;2023-06-10T11:05:54;12.20;;;5.90;;
45476;SDS011;31958;51.756;-2.556;2023-06-10T11:10:53;12.10;;;5.75;;
45476;SDS011;31958;51.756;-2.556;2023-06-10T11:13:19;14.25;;;5.72;;
45476;SDS011;31958;51.756;-2.556;2023-06-10T11:18:26;12.52;;;5.47;;
45476;SDS011;31958;51.756;-2.556;2023-06-10T11:20:57;12.63;;;5.85;;
45476;SDS011;31958;51.756;-2.556;2023-06-10T11:26:14;15.68;;;6.43;;
45476;SDS011;31958;51.756;-2.556;2023-06-10T11:34:01;16.45;;;5.35;;
45476;SDS011;31958;51.756;-2.556;2023-06-10T11:36:28;10.55;;;5.72;;
45476;SDS011;31958;51.756;-2.556;2023-06-10T11:38:57;13.85;;;5.88;;
45476;SDS011;31958;51.756;-2.556;2023-06-10T11:41:28;15.13;;;4.90;;
45476;SDS011;31958;51.756;-2.556;2023-06-10T11:43:56;15.15;;;5.22;;
45476;SDS011;31958;51.756;-2.556;2023-06-10T11:46:22;15.15;;;5.05;;
45476;SDS011;31958;51.756;-2.556;2023-06-10T11:48:48;13.10;;;4.72;;
45476;SDS011;31958;51.756;-2.556;2023-06-10T11:51:17;13.05;;;5.72;;
45476;SDS011;31958;51.756;-2.556;2023-06-10T11:53:46;11.98;;;5.22;;
45476;SDS011;31958;51.756;-2.556;2023-06-10T11:56:12;14.45;;;5.35;;
45476;SDS011;31958;51.756;-2.556;2023-06-10T11:58:38;8.70;;;4.80;;
45476;SDS011;31958;51.756;-2.556;2023-06-10T12:01:07;14.18;;;5.22;;
45476;SDS011;31958;51.756;-2.556;2023-06-10T12:03:36;10.18;;;4.97;;
45476;SDS011;31958;51.756;-2.556;2023-06-10T12:06:03;15.35;;;4.80;;
45476;SDS011;31958;51.756;-2.556;2023-06-10T12:08:30;11.88;;;5.30;;
45476;SDS011;31958;51.756;-2.556;2023-06-10T12:10:56;10.90;;;4.68;;
45476;SDS011;31958;51.756;-2.556;2023-06-10T12:13:22;12.60;;;5.22;;
45476;SDS011;31958;51.756;-2.556;2023-06-10T12:15:49;11.77;;;4.63;;
45476;SDS011;31958;51.756;-2.556;2023-06-10T12:20:46;11.43;;;4.80;;
45476;SDS011;31958;51.756;-2.556;2023-06-10T12:23:13;13.80;;;5.15;;
45476;SDS011;31958;51.756;-2.556;2023-06-10T12:25:51;10.57;;;4.70;;
45476;SDS011;31958;51.756;-2.556;2023-06-10T12:28:24;13.80;;;5.03;;
45476;SDS011;31958;51.756;-2.556;2023-06-10T12:30:50;8.82;;;4.90;;
45476;SDS011;31958;51.756;-2.556;2023-06-10T12:33:16;11.18;;;5.40;;
45476;SDS011;31958;51.756;-2.556;2023-06-10T12:35:48;10.00;;;4.82;;
45476;SDS011;31958;51.756;-2.556;2023-06-10T12:40:46;10.68;;;4.97;;
45476;SDS011;31958;51.756;-2.556;2023-06-10T12:43:11;9.73;;;4.70;;
45476;SDS011;31958;51.756;-2.556;2023-06-10T12:45:37;12.40;;;4.28;;
45476;SDS011;31958;51.756;-2.556;2023-06-10T12:50:42;9.27;;;4.60;;
45476;SDS011;31958;51.756;-2.556;2023-06-10T12:53:09;12.75;;;4.97;;
45476;SDS011;31958;51.756;-2.556;2023-06-10T12:55:36;12.45;;;4.72;;
45476;SDS011;31958;51.756;-2.556;2023-06-10T12:58:02;12.95;;;5.28;;
45476;SDS011;31958;51.756;-2.556;2023-06-10T13:00:28;19.00;;;5.25;;
45476;SDS011;31958;51.756;-2.556;2023-06-10T13:02:59;12.43;;;5.13;;
45476;SDS011;31958;51.756;-2.556;2023-06-10T13:05:25;13.63;;;5.85;;
45476;SDS011;31958;51.756;-2.556;2023-06-10T13:07:51;11.07;;;4.95;;
45476;SDS011;31958;51.756;-2.556;2023-06-10T13:10:17;11.90;;;5.30;;
45476;SDS011;31958;51.756;-2.556;2023-06-10T13:12:43;8.65;;;4.70;;
45476;SDS011;31958;51.756;-2.556;2023-06-10T13:15:09;10.88;;;5.15;;
45476;SDS011;31958;51.756;-2.556;2023-06-10T13:17:35;11.88;;;4.22;;
45476;SDS011;31958;51.756;-2.556;2023-06-10T13:20:02;11.00;;;4.60;;
45476;SDS011;31958;51.756;-2.556;2023-06-10T13:22:30;8.75;;;4.53;;
45476;SDS011;31958;51.756;-2.556;2023-06-10T13:25:00;10.88;;;4.68;;
45476;SDS011;31958;51.756;-2.556;2023-06-10T13:27:26;9.60;;;4.60;;
45476;SDS011;31958;51.756;-2.556;2023-06-10T13:29:52;14.75;;;4.38;;
45476;SDS011;31958;51.756;-2.556;2023-06-10T13:32:17;11.73;;;4.75;;
45476;SDS011;31958;51.756;-2.556;2023-06-10T13:34:43;9.52;;;4.25;;
45476;SDS011;31958;51.756;-2.556;2023-06-10T13:37:08;10.02;;;4.72;;
45476;SDS011;31958;51.756;-2.556;2023-06-10T13:39:33;11.88;;;4.28;;
45476;SDS011;31958;51.756;-2.556;2023-06-10T13:41:59;8.90;;;4.35;;
45476;SDS011;31958;51.756;-2.556;2023-06-10T13:44:24;11.20;;;4.15;;
45476;SDS011;31958;51.756;-2.556;2023-06-10T13:46:50;14.10;;;4.45;;
45476;SDS011;31958;51.756;-2.556;2023-06-10T13:49:15;13.45;;;5.20;;
45476;SDS011;31958;51.756;-2.556;2023-06-10T13:51:40;8.48;;;4.57;;
45476;SDS011;31958;51.756;-2.556;2023-06-10T13:54:05;12.95;;;4.93;;
45476;SDS011;31958;51.756;-2.556;2023-06-10T13:56:31;9.25;;;4.68;;
45476;SDS011;31958;51.756;-2.556;2023-06-10T13:58:58;13.52;;;4.85;;
45476;SDS011;31958;51.756;-2.556;2023-06-10T14:01:24;10.85;;;4.22;;
45476;SDS011;31958;51.756;-2.556;2023-06-10T14:03:50;9.65;;;4.32;;
45476;SDS011;31958;51.756;-2.556;2023-06-10T14:06:15;10.27;;;4.30;;
45476;SDS011;31958;51.756;-2.556;2023-06-10T14:08:43;8.57;;;4.40;;
45476;SDS011;31958;51.756;-2.556;2023-06-10T14:11:09;10.50;;;4.55;;
45476;SDS011;31958;51.756;-2.556;2023-06-10T14:13:34;9.13;;;4.47;;
45476;SDS011;31958;51.756;-2.556;2023-06-10T14:16:00;10.88;;;4.97;;
45476;SDS011;31958;51.756;-2.556;2023-06-10T14:18:27;9.48;;;4.38;;
45476;SDS011;31958;51.756;-2.556;2023-06-10T14:20:53;7.40;;;4.13;;
45476;SDS011;31958;51.756;-2.556;2023-06-10T14:23:18;8.57;;;4.07;;
45476;SDS011;31958;51.756;-2.556;2023-06-10T14:25:43;11.10;;;4.40;;
45476;SDS011;31958;51.756;-2.556;2023-06-10T14:28:09;12.35;;;5.95;;
45476;SDS011;31958;51.756;-2.556;2023-06-10T14:30:34;10.93;;;4.35;;
45476;SDS011;31958;51.756;-2.556;2023-06-10T14:33:00;11.55;;;4.63;;
45476;SDS011;31958;51.756;-2.556;2023-06-10T14:35:25;10.10;;;4.55;;
45476;SDS011;31958;51.756;-2.556;2023-06-10T14:37:50;9.13;;;4.50;;
45476;SDS011;31958;51.756;-2.556;2023-06-10T14:40:16;9.52;;;4.20;;
45476;SDS011;31958;51.756;-2.556;2023-06-10T14:42:41;11.95;;;5.03;;
45476;SDS011;31958;51.756;-2.556;2023-06-10T14:45:07;13.27;;;5.05;;